Time;durP1;ratioP1;P1;durP2;ratioP2;P2;SDS_P1;SDS_P2;PMS_P1;PMS_P2;Temp;Humidity;BMP_temperature;BMP_pressure;BME280_temperature;BME280_humidity;BME280_pressure;Samples;Min_cycle;Max_cycle;Signal;HPM_P1;HPM_P2
2023/07/18 00:00:59;;;;;;;5.95;2.42;;;;;;;27.89;35.51;98905.25;4940151;29;20032;-74
2023/07/18 00:03:26;;;;;;;7.93;2.50;;;;;;;27.93;35.42;98907.25;4889731;29;20040;-75
2023/07/18 00:05:51;;;;;;;4.57;2.30;;;;;;;27.94;35.48;98902.69;4889572;29;20036;-74
2023/07/18 00:08:17;;;;;;;3.90;2.30;;;;;;;27.87;35.19;98894.75;4904983;29;20051;-74
2023/07/18 00:10:42;;;;;;;5.50;2.58;;;;;;;27.88;35.26;98898.22;4905243;29;20475;-74
2023/07/18 00:13:08;;;;;;;5.28;2.25;;;;;;;27.89;35.52;98903.38;4920794;29;20031;-74
2023/07/18 00:15:33;;;;;;;4.15;2.40;;;;;;;27.88;35.52;98896.41;4904940;29;20024;-74
2023/07/18 00:18:01;;;;;;;3.80;2.17;;;;;;;27.87;35.49;98892.06;4920653;29;20079;-74
2023/07/18 00:20:27;;;;;;;4.60;2.50;;;;;;;27.86;35.69;98884.25;4921164;29;20058;-74
2023/07/18 00:22:53;;;;;;;3.72;2.53;;;;;;;27.81;35.47;98890.28;4905133;29;20406;-75
2023/07/18 00:25:19;;;;;;;4.55;2.72;;;;;;;27.83;35.93;98898.09;4889446;29;20028;-75
2023/07/18 00:27:49;;;;;;;6.57;2.53;;;;;;;27.84;35.75;98895.19;4920536;29;20479;-75
2023/07/18 00:30:15;;;;;;;4.75;2.20;;;;;;;27.81;35.78;98892.97;4905669;29;20040;-75
2023/07/18 00:32:42;;;;;;;7.00;2.50;;;;;;;27.76;35.89;98890.16;4920377;29;20056;-74
2023/07/18 00:35:08;;;;;;;4.28;2.45;;;;;;;27.78;35.93;98890.72;4905043;29;20074;-74
2023/07/18 00:37:34;;;;;;;7.25;2.40;;;;;;;27.71;36.13;98877.41;4920362;29;20043;-75
2023/07/18 00:39:59;;;;;;;4.68;2.35;;;;;;;27.76;36.17;98892.81;4904212;29;20039;-76
2023/07/18 00:42:25;;;;;;;3.20;2.10;;;;;;;27.86;36.71;98889.59;4904096;29;20074;-75
2023/07/18 00:44:50;;;;;;;4.50;2.60;;;;;;;27.95;36.56;98888.28;4904809;29;20063;-74
2023/07/18 00:47:17;;;;;;;5.32;2.10;;;;;;;27.94;36.18;98887.47;4908528;29;20039;-84
2023/07/18 00:49:43;;;;;;;3.42;2.22;;;;;;;27.87;36.15;98885.88;4918415;29;20039;-87
2023/07/18 00:52:08;;;;;;;4.18;2.50;;;;;;;27.82;36.28;98877.69;4935796;29;20032;-86
2023/07/18 00:54:34;;;;;;;5.60;2.28;;;;;;;27.74;36.34;98873.47;4918833;29;20055;-86
2023/07/18 00:56:59;;;;;;;6.47;2.22;;;;;;;27.69;36.53;98858.06;4933306;29;20038;-87
2023/07/18 00:59:25;;;;;;;5.68;2.10;;;;;;;27.65;36.69;98867.59;4904899;29;20040;-85
2023/07/18 01:01:51;;;;;;;5.30;1.90;;;;;;;27.54;36.58;98860.28;4904313;29;20136;-89
2023/07/18 01:04:18;;;;;;;4.47;2.50;;;;;;;27.44;36.86;98858.97;4920591;29;20407;-90
2023/07/18 01:06:44;;;;;;;3.53;2.13;;;;;;;27.42;36.91;98868.25;4920354;29;20102;-87
2023/07/18 01:09:10;;;;;;;3.80;1.92;;;;;;;27.34;37.20;98856.00;4904306;29;20040;-87
2023/07/18 01:11:35;;;;;;;6.75;2.33;;;;;;;27.31;37.00;98860.97;4904503;29;20028;-85
2023/07/18 01:14:03;;;;;;;4.35;2.08;;;;;;;27.28;37.06;98856.84;4904260;29;20036;-85
2023/07/18 01:16:29;;;;;;;4.88;1.90;;;;;;;27.27;37.43;98856.00;4919885;29;20034;-85
2023/07/18 01:18:54;;;;;;;4.88;2.10;;;;;;;27.23;37.19;98857.53;4919772;29;20039;-85
2023/07/18 01:21:20;;;;;;;4.18;2.20;;;;;;;27.18;37.50;98851.97;4919561;29;20063;-85
2023/07/18 01:23:46;;;;;;;4.05;1.98;;;;;;;27.17;37.49;98846.88;4904604;29;20118;-86
2023/07/18 01:26:12;;;;;;;4.85;2.40;;;;;;;27.12;37.82;98844.88;4936586;29;20055;-86
2023/07/18 01:28:38;;;;;;;3.15;2.10;;;;;;;27.04;37.68;98842.44;4904256;29;20035;-84
2023/07/18 01:31:04;;;;;;;6.15;1.90;;;;;;;27.00;37.39;98842.09;4936178;29;20054;-85
2023/07/18 01:33:29;;;;;;;3.40;2.25;;;;;;;27.02;37.84;98841.88;4904019;29;20024;-84
2023/07/18 01:35:55;;;;;;;6.32;1.95;;;;;;;27.02;38.00;98837.31;4919519;29;20497;-85
2023/07/18 01:38:20;;;;;;;3.38;1.90;;;;;;;27.01;37.33;98843.72;4889038;29;20043;-85
2023/07/18 01:40:46;;;;;;;5.13;2.33;;;;;;;26.94;37.67;98844.84;4889635;29;20036;-85
2023/07/18 01:43:12;;;;;;;5.20;2.13;;;;;;;26.89;38.05;98838.28;4921452;29;20510;-85
2023/07/18 01:45:38;;;;;;;4.65;2.17;;;;;;;26.93;38.04;98845.88;4888656;29;20510;-85
2023/07/18 01:48:03;;;;;;;4.45;2.45;;;;;;;26.94;37.79;98834.13;4922809;29;20036;-85
2023/07/18 01:50:29;;;;;;;3.78;2.20;;;;;;;26.90;37.93;98826.53;4887832;29;20054;-85
2023/07/18 01:52:55;;;;;;;4.32;2.17;;;;;;;26.91;38.05;98832.69;4903309;29;20044;-85
2023/07/18 01:55:20;;;;;;;6.13;2.22;;;;;;;26.96;38.28;98835.53;4902844;29;20506;-85
2023/07/18 01:57:47;;;;;;;2.63;1.88;;;;;;;26.95;38.52;98833.91;4903773;29;20031;-85
2023/07/18 02:00:18;;;;;;;8.83;2.10;;;;;;;26.85;38.60;98831.72;4903355;29;20070;-85
2023/07/18 02:02:46;;;;;;;3.30;2.03;;;;;;;26.76;38.41;98827.69;4889129;29;20476;-85
2023/07/18 02:05:12;;;;;;;4.90;2.22;;;;;;;26.71;38.77;98835.56;4903918;29;20166;-85
2023/07/18 02:07:38;;;;;;;4.45;2.22;;;;;;;26.68;38.38;98836.00;4887297;29;20040;-89
2023/07/18 02:10:04;;;;;;;3.65;2.15;;;;;;;26.64;38.15;98832.09;4903469;29;20047;-89
2023/07/18 02:12:30;;;;;;;3.33;2.25;;;;;;;26.57;38.64;98834.00;4918735;29;20031;-89
2023/07/18 02:14:55;;;;;;;4.47;2.25;;;;;;;26.46;38.52;98820.28;4902098;29;20039;-85
2023/07/18 02:17:21;;;;;;;4.65;2.40;;;;;;;26.43;38.58;98834.13;4919258;29;20077;-85
2023/07/18 02:19:46;;;;;;;4.38;2.20;;;;;;;26.37;38.77;98832.31;4887530;29;20048;-85
2023/07/18 02:22:12;;;;;;;3.67;2.33;;;;;;;26.38;38.46;98828.59;4919907;29;20081;-86
2023/07/18 02:24:37;;;;;;;7.68;2.30;;;;;;;26.39;38.75;98832.91;4904877;29;20031;-84
2023/07/18 02:27:03;;;;;;;4.20;2.05;;;;;;;26.35;38.41;98827.16;4888832;29;20035;-85
2023/07/18 02:29:29;;;;;;;8.02;2.05;;;;;;;26.31;38.50;98827.81;4919401;29;20039;-85
2023/07/18 02:31:54;;;;;;;4.57;2.05;;;;;;;26.28;38.80;98817.53;4936096;29;20047;-85
2023/07/18 02:34:20;;;;;;;4.07;2.10;;;;;;;26.25;38.78;98820.66;4903033;29;20042;-85
2023/07/18 02:36:45;;;;;;;4.43;2.20;;;;;;;26.30;38.86;98818.16;4918805;29;20032;-85
2023/07/18 02:39:11;;;;;;;4.75;2.25;;;;;;;26.27;38.96;98816.75;4918678;29;20400;-85
2023/07/18 02:41:39;;;;;;;5.57;2.28;;;;;;;26.28;38.57;98820.22;4918389;29;20143;-85
2023/07/18 02:44:05;;;;;;;4.18;2.00;;;;;;;26.25;38.80;98826.84;4917886;29;20098;-85
2023/07/18 02:46:30;;;;;;;5.18;2.10;;;;;;;26.23;39.13;98820.06;4903000;29;20031;-85
2023/07/18 02:48:56;;;;;;;3.70;2.00;;;;;;;26.29;39.16;98822.69;4886827;29;20036;-85
2023/07/18 02:51:22;;;;;;;3.22;1.98;;;;;;;26.29;39.27;98816.53;4903195;29;20040;-85
2023/07/18 02:53:49;;;;;;;3.22;2.10;;;;;;;26.28;39.27;98813.03;4918662;29;20028;-85
2023/07/18 02:56:15;;;;;;;3.38;1.98;;;;;;;26.26;39.20;98803.56;4887506;29;20031;-85
2023/07/18 02:58:41;;;;;;;3.42;1.90;;;;;;;26.21;39.46;98803.41;4887781;29;20510;-85
2023/07/18 03:01:07;;;;;;;5.78;2.00;;;;;;;26.16;39.03;98806.75;4887207;29;20036;-85
2023/07/18 03:03:38;;;;;;;3.67;2.20;;;;;;;26.12;38.88;98813.53;4903446;29;20036;-85
2023/07/18 03:06:04;;;;;;;3.38;2.25;;;;;;;26.14;38.95;98809.63;4919040;29;20407;-85
2023/07/18 03:08:32;;;;;;;4.57;2.20;;;;;;;26.16;39.02;98812.09;4886617;29;20070;-85
2023/07/18 03:11:00;;;;;;;4.93;2.40;;;;;;;26.18;39.02;98804.66;4918628;29;20034;-85
2023/07/18 03:13:26;;;;;;;5.45;2.03;;;;;;;26.30;38.88;98812.81;4902856;29;20032;-85
2023/07/18 03:15:51;;;;;;;6.25;2.30;;;;;;;26.36;38.55;98814.59;4934757;29;20038;-85
2023/07/18 03:18:17;;;;;;;5.60;2.15;;;;;;;26.44;38.33;98809.00;4918250;29;20039;-85
2023/07/18 03:20:42;;;;;;;7.40;2.20;;;;;;;26.56;38.62;98813.63;4935056;29;20156;-84
2023/07/18 03:23:08;;;;;;;4.53;2.03;;;;;;;26.66;38.19;98806.78;4918444;29;20095;-84
2023/07/18 03:25:34;;;;;;;3.42;2.00;;;;;;;26.82;37.53;98812.59;4919581;29;20036;-88
2023/07/18 03:27:59;;;;;;;5.47;2.33;;;;;;;26.97;37.57;98809.56;4906031;29;20067;-86
2023/07/18 03:30:25;;;;;;;3.75;2.05;;;;;;;27.13;37.10;98810.84;4921468;29;20111;-90
2023/07/18 03:32:51;;;;;;;2.65;2.10;;;;;;;27.32;37.12;98809.00;4905580;29;20082;-78
2023/07/18 03:35:17;;;;;;;5.28;2.00;;;;;;;27.49;36.81;98810.03;4938673;29;20028;-85
2023/07/18 03:37:42;;;;;;;9.38;2.25;;;;;;;27.45;37.50;98803.47;4890278;29;20061;-78
2023/07/18 03:40:10;;;;;;;14.65;2.40;;;;;;;27.67;36.96;98808.38;4938876;29;20028;-79
2023/07/18 03:42:38;;;;;;;61.65;3.42;;;;;;;27.62;36.66;98812.53;4921735;29;20032;-80
2023/07/18 03:45:04;;;;;;;21.80;2.33;;;;;;;27.62;37.42;98817.91;4921595;29;20031;-78
2023/07/18 03:47:30;;;;;;;21.50;2.70;;;;;;;27.79;37.14;98815.41;4920894;29;20039;-76
2023/07/18 03:49:56;;;;;;;20.45;2.67;;;;;;;28.19;37.11;98814.03;4905894;29;20076;-84
2023/07/18 03:52:21;;;;;;;11.18;2.30;;;;;;;28.62;36.23;98804.09;4890533;29;20510;-86
2023/07/18 03:54:47;;;;;;;5.40;2.45;;;;;;;29.04;35.47;98809.34;4938710;29;20062;-81
2023/07/18 03:57:13;;;;;;;11.52;2.30;;;;;;;29.61;34.11;98821.28;4937884;29;20035;-84
2023/07/18 03:59:39;;;;;;;4.63;2.05;;;;;;;30.08;33.72;98816.53;4889789;29;20495;-84
2023/07/18 04:02:05;;;;;;;6.60;2.25;;;;;;;30.54;32.62;98810.28;4921361;29;20039;-84
2023/07/18 04:04:30;;;;;;;5.40;2.15;;;;;;;31.03;31.59;98807.78;4889521;29;20035;-84
2023/07/18 04:06:56;;;;;;;5.05;2.20;;;;;;;31.53;30.97;98808.69;4906124;29;20114;-83
2023/07/18 04:09:21;;;;;;;8.20;2.10;;;;;;;32.09;30.27;98819.28;4905774;29;20472;-83
2023/07/18 04:11:47;;;;;;;6.45;2.10;;;;;;;32.56;29.76;98813.19;4910698;29;20071;-83
2023/07/18 04:14:13;;;;;;;4.63;2.00;;;;;;;33.05;28.62;98806.75;4940970;29;20039;-81
2023/07/18 04:16:38;;;;;;;5.50;2.00;;;;;;;33.60;28.00;98804.50;4939459;29;20044;-82
2023/07/18 04:19:04;;;;;;;4.93;2.03;;;;;;;34.05;27.17;98805.72;4956594;29;20042;-81
2023/07/18 04:21:30;;;;;;;6.63;2.13;;;;;;;34.53;26.10;98808.16;4939483;29;20059;-82
2023/07/18 04:23:55;;;;;;;4.93;2.10;;;;;;;35.04;25.88;98801.03;4956525;29;20058;-82
2023/07/18 04:26:21;;;;;;;9.43;2.08;;;;;;;35.48;25.32;98792.19;4939842;29;20478;-83
2023/07/18 04:28:47;;;;;;;7.68;2.00;;;;;;;35.94;24.55;98799.25;4939318;29;20121;-82
2023/07/18 04:31:13;;;;;;;6.95;2.10;;;;;;;36.41;24.22;98800.53;4956376;29;20055;-82
2023/07/18 04:33:39;;;;;;;17.42;1.90;;;;;;;36.88;23.57;98807.16;4955431;29;20126;-83
2023/07/18 04:36:05;;;;;;;11.52;2.10;;;;;;;37.35;23.12;98806.63;4938619;29;20043;-82
2023/07/18 04:38:31;;;;;;;4.22;1.90;;;;;;;37.77;22.73;98804.97;4938925;29;20038;-82
2023/07/18 04:40:56;;;;;;;8.60;2.20;;;;;;;38.24;22.31;98800.44;4904583;29;20048;-79
2023/07/18 04:43:22;;;;;;;10.57;2.40;;;;;;;38.69;21.55;98805.41;4901494;29;20039;-79
2023/07/18 04:45:47;;;;;;;10.20;2.10;;;;;;;39.10;21.26;98801.09;4901251;29;20055;-77
2023/07/18 04:48:17;;;;;;;9.82;2.20;;;;;;;39.49;20.68;98797.78;4901429;29;20036;-80
2023/07/18 04:50:44;;;;;;;18.10;2.85;;;;;;;39.82;20.39;98796.78;4901156;29;20096;-79
2023/07/18 04:53:10;;;;;;;11.13;2.20;;;;;;;40.15;20.17;98797.38;4900820;29;20024;-78
2023/07/18 04:55:36;;;;;;;12.73;2.33;;;;;;;40.48;19.25;98792.44;4900974;29;20043;-80
2023/07/18 04:58:06;;;;;;;11.03;2.03;;;;;;;40.82;19.27;98796.47;4912482;29;20472;-78
2023/07/18 05:00:32;;;;;;;19.98;2.53;;;;;;;41.07;19.17;98802.38;4937227;29;20031;-79
2023/07/18 05:02:58;;;;;;;12.38;2.15;;;;;;;41.43;18.63;98804.06;4936963;29;20454;-79
2023/07/18 05:05:27;;;;;;;12.82;2.75;;;;;;;41.72;18.31;98783.47;4903636;29;20050;-81
2023/07/18 05:07:58;;;;;;;18.55;3.00;;;;;;;42.07;18.40;98803.44;4914432;29;20626;-79
2023/07/18 05:10:24;;;;;;;15.30;2.30;;;;;;;42.28;17.92;98795.34;4920250;29;20031;-79
2023/07/18 05:12:51;;;;;;;8.10;2.50;;;;;;;42.60;17.31;98800.59;4919770;29;20031;-80
2023/07/18 05:15:16;;;;;;;10.52;2.72;;;;;;;42.96;17.10;98799.31;4903639;29;20036;-79
2023/07/18 05:17:42;;;;;;;6.87;2.40;;;;;;;43.14;16.96;98794.53;4904094;29;20050;-79
2023/07/18 05:20:10;;;;;;;7.83;2.37;;;;;;;43.39;17.03;98805.72;4888295;29;20032;-78
2023/07/18 05:22:39;;;;;;;6.35;2.10;;;;;;;43.69;16.53;98789.97;4936442;29;20047;-78
2023/07/18 05:25:06;;;;;;;6.07;2.05;;;;;;;44.14;15.84;98792.00;4904398;29;20024;-79
2023/07/18 05:27:32;;;;;;;9.32;2.42;;;;;;;44.42;15.48;98794.97;4903470;29;20115;-80
2023/07/18 05:29:57;;;;;;;15.03;2.20;;;;;;;44.79;14.85;98792.25;4903978;29;20483;-83
2023/07/18 05:32:23;;;;;;;11.03;2.17;;;;;;;45.01;14.53;98792.97;4887823;29;20056;-81
2023/07/18 05:34:51;;;;;;;10.83;2.67;;;;;;;45.32;14.71;98794.28;4919590;29;20032;-82
2023/07/18 05:37:17;;;;;;;12.60;2.10;;;;;;;45.62;13.94;98791.22;4904825;29;20047;-89
2023/07/18 05:39:42;;;;;;;8.23;2.23;;;;;;;45.83;14.71;98785.53;4931526;29;20034;-81
2023/07/18 05:42:08;;;;;;;14.23;2.03;;;;;;;45.94;14.45;98786.63;4889281;29;20032;-86
2023/07/18 05:44:33;;;;;;;16.10;2.50;;;;;;;46.28;13.96;98787.16;4919401;29;20036;-82
2023/07/18 05:46:59;;;;;;;7.03;2.17;;;;;;;46.56;13.39;98789.88;4919346;29;20036;-81
2023/07/18 05:49:25;;;;;;;11.60;2.30;;;;;;;46.86;13.01;98783.88;4902593;29;20456;-83
2023/07/18 05:51:51;;;;;;;12.35;2.17;;;;;;;47.12;13.35;98788.81;4919932;29;20035;-82
2023/07/18 05:54:17;;;;;;;9.65;2.20;;;;;;;47.34;12.86;98783.00;4903536;29;20034;-79
2023/07/18 05:56:42;;;;;;;9.90;2.57;;;;;;;47.54;12.71;98783.78;4919349;29;20039;-82
2023/07/18 05:59:08;;;;;;;10.23;1.80;;;;;;;47.73;12.64;98781.06;4936431;29;20027;-80
2023/07/18 06:01:34;;;;;;;8.83;2.03;;;;;;;47.79;12.43;98771.31;4935965;29;20078;-81
2023/07/18 06:03:59;;;;;;;14.60;2.10;;;;;;;47.94;12.38;98785.41;4887739;29;20130;-79
2023/07/18 06:06:25;;;;;;;7.97;1.90;;;;;;;48.10;11.72;98777.03;4903515;29;20364;-80
2023/07/18 06:08:51;;;;;;;12.07;2.00;;;;;;;48.21;11.60;98775.22;4887589;29;20271;-77
2023/07/18 06:11:18;;;;;;;;;;;;;;;48.08;11.92;98771.03;4913986;29;20046;-77
2023/07/18 06:13:44;;;;;;;5.63;2.13;;;;;;;48.33;12.27;98760.41;4918005;29;19915;-77
2023/07/18 06:16:10;;;;;;;8.20;2.10;;;;;;;48.41;12.11;98761.34;4916155;29;20035;-78
2023/07/18 06:18:35;;;;;;;6.90;1.90;;;;;;;48.47;11.80;98760.66;4920490;29;20043;-78
2023/07/18 06:21:02;;;;;;;8.37;1.90;;;;;;;48.55;12.15;98758.81;4920999;29;20286;-78
2023/07/18 06:23:29;;;;;;;6.38;1.92;;;;;;;48.58;12.01;98758.06;4953791;29;20038;-78
2023/07/18 06:25:55;;;;;;;9.00;2.15;;;;;;;48.61;11.89;98760.09;4921404;29;20038;-78
2023/07/18 06:28:20;;;;;;;5.83;2.00;;;;;;;48.62;11.95;98756.16;4920328;29;20051;-78
2023/07/18 06:30:45;;;;;;;3.90;1.77;;;;;;;48.62;12.25;98760.91;4915002;29;20133;-78
2023/07/18 06:33:11;;;;;;;6.03;1.67;;;;;;;48.57;11.82;98752.91;4867647;29;20575;-76
2023/07/18 06:35:37;;;;;;;4.83;1.80;;;;;;;48.51;11.69;98747.69;4898876;29;20131;-78
2023/07/18 06:38:04;;;;;;;4.95;1.85;;;;;;;48.49;11.87;98746.44;4918375;29;20476;-86
2023/07/18 06:40:29;;;;;;;5.43;1.80;;;;;;;48.44;12.14;98746.75;4901376;29;20044;-88
2023/07/18 06:42:54;;;;;;;9.37;1.50;;;;;;;48.24;10.07;98735.75;4886538;29;20125;-80
2023/07/18 06:45:21;;;;;;;8.50;1.93;;;;;;;47.94;10.95;98749.44;4904147;29;20080;-89
2023/07/18 06:47:47;;;;;;;5.80;1.67;;;;;;;47.78;11.64;98742.03;4872214;29;20083;-85
2023/07/18 06:50:13;;;;;;;4.53;1.63;;;;;;;47.76;12.13;98744.38;4902010;29;20040;-84
2023/07/18 06:52:38;;;;;;;8.10;1.75;;;;;;;47.76;12.36;98749.09;4870203;29;20047;-85
2023/07/18 06:55:06;;;;;;;6.60;2.00;;;;;;;47.71;12.16;98744.66;4900293;29;20408;-86
2023/07/18 06:57:31;;;;;;;5.85;1.85;;;;;;;47.66;12.47;98747.69;4884670;29;20480;-85
2023/07/18 06:59:57;;;;;;;7.57;1.63;;;;;;;47.68;12.20;98753.69;4887605;29;20028;-86
2023/07/18 07:02:22;;;;;;;8.47;2.13;;;;;;;47.59;12.50;98753.91;4875572;29;20411;-87
2023/07/18 07:04:48;;;;;;;3.90;1.80;;;;;;;47.43;12.36;98750.41;4890330;29;20424;-84
2023/07/18 07:07:13;;;;;;;5.20;1.50;;;;;;;47.38;12.88;98756.22;4931549;29;20035;-87
2023/07/18 07:09:39;;;;;;;5.97;2.07;;;;;;;47.34;13.06;98747.06;4924676;29;20415;-88
2023/07/18 07:12:06;;;;;;;8.20;2.10;;;;;;;47.26;12.48;98746.88;4909205;29;20111;-81
2023/07/18 07:14:32;;;;;;;7.63;2.00;;;;;;;47.25;12.69;98741.72;4942989;29;20040;-78
2023/07/18 07:16:58;;;;;;;8.93;1.98;;;;;;;47.20;13.27;98744.78;4910057;29;20454;-73
2023/07/18 07:19:24;;;;;;;7.68;2.53;;;;;;;47.13;13.13;98745.44;4923950;29;20043;-73
2023/07/18 07:21:49;;;;;;;13.20;2.60;;;;;;;47.09;13.48;98747.31;4941177;29;20035;-74
2023/07/18 07:24:15;;;;;;;8.60;2.37;;;;;;;47.10;13.42;98748.91;4924888;29;20046;-77
2023/07/18 07:26:40;;;;;;;8.53;2.10;;;;;;;47.02;13.90;98741.63;4943594;28;20050;-77
2023/07/18 07:29:07;;;;;;;8.97;2.17;;;;;;;46.96;14.06;98741.13;4943014;29;20030;-77
2023/07/18 07:31:32;;;;;;;11.63;2.13;;;;;;;46.79;12.57;98741.47;4943170;29;20514;-76
2023/07/18 07:33:58;;;;;;;9.67;2.10;;;;;;;46.76;13.68;98737.47;4960202;29;20039;-76
2023/07/18 07:36:23;;;;;;;11.83;2.10;;;;;;;46.73;13.65;98732.66;4942432;29;20074;-73
2023/07/18 07:38:49;;;;;;;9.57;2.80;;;;;;;46.72;13.82;98733.84;4926514;28;20043;-71
2023/07/18 07:41:15;;;;;;;9.85;2.28;;;;;;;46.69;13.67;98729.81;4942429;29;20039;-71
2023/07/18 07:43:41;;;;;;;9.48;2.30;;;;;;;46.53;13.33;98735.34;4942633;29;20063;-72
2023/07/18 07:46:06;;;;;;;6.07;2.50;;;;;;;46.46;13.65;98724.13;4960027;29;20031;-72
2023/07/18 07:48:32;;;;;;;8.73;2.40;;;;;;;46.45;14.30;98725.31;4942850;29;20119;-72
2023/07/18 07:50:58;;;;;;;9.73;2.70;;;;;;;46.37;14.05;98706.94;4960130;28;20489;-69
2023/07/18 07:53:23;;;;;;;;;;;;;;;46.27;13.84;98726.81;4926713;29;20043;-73
2023/07/18 07:55:49;;;;;;;5.97;2.10;;;;;;;46.35;14.76;98720.31;4959880;29;20349;-73
2023/07/18 07:58:15;;;;;;;6.97;2.27;;;;;;;46.29;14.16;98718.97;4926779;29;20038;-71
2023/07/18 08:00:40;;;;;;;6.77;2.50;;;;;;;46.32;14.44;98718.25;4942784;29;20031;-72
2023/07/18 08:03:06;;;;;;;15.80;2.77;;;;;;;46.30;14.96;98715.06;4926845;29;20035;-70
2023/07/18 08:05:31;;;;;;;13.17;2.63;;;;;;;46.23;14.98;98724.78;4942900;29;20023;-72
2023/07/18 08:07:57;;;;;;;18.40;1.90;;;;;;;46.04;14.46;98706.13;4940371;29;20418;-72
2023/07/18 08:10:23;;;;;;;7.60;2.30;;;;;;;46.05;14.42;98720.72;4943538;29;20275;-72
2023/07/18 08:12:48;;;;;;;9.70;2.20;;;;;;;45.99;15.06;98713.88;4904849;29;20034;-69
2023/07/18 08:15:14;;;;;;;8.20;2.47;;;;;;;45.97;14.82;98718.94;4894000;29;20020;-70
2023/07/18 08:17:39;;;;;;;9.10;2.20;;;;;;;45.92;15.34;98708.19;4923531;29;20565;-69
2023/07/18 08:20:08;;;;;;;8.57;2.40;;;;;;;45.85;14.98;98708.81;4924000;29;20059;-70
2023/07/18 08:22:33;;;;;;;6.07;2.50;;;;;;;45.71;15.69;98695.41;4939557;29;20071;-68
2023/07/18 08:24:59;;;;;;;6.23;2.43;;;;;;;45.68;15.96;98701.63;4943347;29;20062;-68
2023/07/18 08:27:24;;;;;;;5.43;1.87;;;;;;;45.54;15.01;98706.75;4889292;29;20036;-69
2023/07/18 08:29:50;;;;;;;6.13;2.20;;;;;;;45.29;14.55;98701.28;4903754;29;20583;-69
2023/07/18 08:32:15;;;;;;;4.57;2.10;;;;;;;45.21;14.95;98696.75;4937017;29;20475;-68
2023/07/18 08:34:41;;;;;;;6.17;2.10;;;;;;;45.10;15.28;98699.97;4920214;29;20035;-66
2023/07/18 08:37:09;;;;;;;7.03;2.20;;;;;;;45.04;15.60;98698.63;4904049;29;20040;-68
2023/07/18 08:39:35;;;;;;;4.30;2.38;;;;;;;44.93;15.85;98698.28;4905309;29;20030;-68
2023/07/18 08:42:00;;;;;;;7.37;2.60;;;;;;;44.72;15.85;98703.91;4936926;29;20036;-67
2023/07/18 08:44:26;;;;;;;6.30;2.57;;;;;;;44.61;16.40;98700.84;4904249;29;20471;-69
2023/07/18 08:46:51;;;;;;;4.30;2.50;;;;;;;44.55;16.38;98691.19;4920341;29;20090;-68
2023/07/18 08:49:17;;;;;;;3.83;2.10;;;;;;;44.55;16.90;98702.19;4904152;29;20034;-70
2023/07/18 08:51:43;;;;;;;6.00;2.90;;;;;;;44.46;16.75;98682.25;4888527;29;20095;-69
2023/07/18 08:54:09;;;;;;;9.30;2.70;;;;;;;44.44;17.23;98688.09;4918879;29;20039;-69
2023/07/18 08:56:34;;;;;;;8.77;2.87;;;;;;;44.43;17.26;98693.94;4903996;29;20130;-68
2023/07/18 08:59:00;;;;;;;9.17;2.70;;;;;;;44.41;17.59;98679.75;4919510;29;20030;-69
2023/07/18 09:01:26;;;;;;;4.53;2.60;;;;;;;44.38;17.72;98681.22;4919894;29;20043;-68
2023/07/18 09:03:51;;;;;;;4.93;2.50;;;;;;;44.31;17.61;98680.19;4936659;29;20035;-68
2023/07/18 09:06:20;;;;;;;9.37;2.60;;;;;;;44.26;17.57;98673.75;4936635;29;20035;-69
2023/07/18 09:08:45;;;;;;;4.60;2.90;;;;;;;44.16;17.26;98674.19;4919653;29;20091;-69
2023/07/18 09:11:12;;;;;;;9.03;3.10;;;;;;;44.02;17.66;98673.72;4936620;29;20043;-68
2023/07/18 09:13:39;;;;;;;9.23;3.03;;;;;;;43.87;17.79;98667.75;4888514;29;20032;-68
2023/07/18 09:16:20;;;;;;;7.18;2.72;;;;;;;43.66;17.84;98664.22;4904043;29;20534;-67
2023/07/18 09:18:49;;;;;;;8.93;3.00;;;;;;;43.65;18.34;98657.94;4919436;29;20050;-68
2023/07/18 09:21:14;;;;;;;6.47;2.90;;;;;;;43.57;18.43;98653.34;4936427;29;20051;-68
2023/07/18 09:23:41;;;;;;;8.80;2.83;;;;;;;43.51;18.47;98658.22;4903298;29;20039;-68
2023/07/18 09:26:10;;;;;;;7.53;2.92;;;;;;;43.34;18.65;98663.88;4918877;29;20031;-70
2023/07/18 09:28:36;;;;;;;7.15;2.92;;;;;;;43.32;18.89;98647.72;4936253;29;20086;-68
2023/07/18 09:31:02;;;;;;;7.97;3.00;;;;;;;43.30;18.93;98654.69;4919183;29;20036;-67
2023/07/18 09:33:27;;;;;;;8.57;3.30;;;;;;;43.16;18.97;98649.50;4918710;29;20047;-69
2023/07/18 09:35:57;;;;;;;7.37;3.20;;;;;;;42.98;18.93;98644.13;4918965;29;20064;-68
2023/07/18 09:38:23;;;;;;;10.18;3.33;;;;;;;42.59;19.55;98654.38;4903804;29;20047;-72
2023/07/18 09:40:48;;;;;;;10.77;3.57;;;;;;;42.60;19.67;98655.19;4902748;29;20165;-68
2023/07/18 09:43:14;;;;;;;7.67;3.23;;;;;;;42.49;19.56;98646.50;4919017;29;20032;-69
2023/07/18 09:45:39;;;;;;;7.60;3.30;;;;;;;42.38;19.96;98648.81;4919023;29;20035;-69
2023/07/18 09:48:05;;;;;;;10.80;3.27;;;;;;;42.06;20.45;98647.50;4918352;29;20047;-68
2023/07/18 09:50:32;;;;;;;8.80;3.50;;;;;;;42.26;20.58;98648.75;4903380;29;20031;-68
2023/07/18 09:52:57;;;;;;;11.18;3.50;;;;;;;42.34;20.42;98638.88;4903470;29;20043;-69
2023/07/18 09:55:34;;;;;;;5.43;3.00;;;;;;;42.39;20.93;98641.41;4918761;29;20035;-69
2023/07/18 09:57:59;;;;;;;8.70;3.28;;;;;;;42.39;21.03;98639.47;4920177;29;20476;-67
2023/07/18 10:00:25;;;;;;;6.27;3.30;;;;;;;42.10;20.92;98634.75;4918564;29;20193;-70
2023/07/18 10:02:52;;;;;;;7.03;3.30;;;;;;;41.95;21.44;98633.34;4918720;29;20027;-68
2023/07/18 10:05:18;;;;;;;6.25;3.20;;;;;;;42.00;21.66;98622.19;4919223;29;20024;-67
2023/07/18 10:07:43;;;;;;;5.90;3.10;;;;;;;42.04;21.85;98627.84;4918581;29;20351;-68
2023/07/18 10:10:09;;;;;;;8.07;3.17;;;;;;;42.03;21.87;98620.75;4934003;29;20111;-68
2023/07/18 10:12:59;;;;;;;10.80;3.30;;;;;;;42.00;22.03;98615.91;4902834;29;20039;-69
2023/07/18 10:15:26;;;;;;;6.35;3.50;;;;;;;41.78;22.08;98619.69;4918296;29;20031;-68
2023/07/18 10:17:51;;;;;;;6.20;3.40;;;;;;;41.77;22.42;98613.44;4918459;29;20491;-68
2023/07/18 10:20:55;;;;;;;6.93;3.53;;;;;;;41.78;22.18;98616.97;4935278;29;20039;-68
2023/07/18 10:23:38;;;;;;;8.68;3.78;;;;;;;41.81;21.93;98602.59;4935624;29;20043;-69
2023/07/18 10:26:05;;;;;;;6.75;3.83;;;;;;;41.80;22.08;98592.75;4899195;29;20119;-68
2023/07/18 10:28:47;;;;;;;6.22;3.67;;;;;;;41.86;22.08;98595.03;4883707;29;20055;-68
2023/07/18 10:31:28;;;;;;;10.73;3.90;;;;;;;41.64;22.39;98597.94;4899555;29;20069;-68
2023/07/18 10:34:10;;;;;;;10.45;4.38;;;;;;;41.43;22.42;98595.09;4915920;29;20499;-68
2023/07/18 10:36:36;;;;;;;8.27;4.43;;;;;;;41.41;22.71;98600.91;4915828;29;20111;-68
2023/07/18 10:39:06;;;;;;;;;;;;;;;41.38;22.71;98580.44;4899623;29;20044;-68
2023/07/18 10:41:31;;;;;;;13.32;4.38;;;;;;;41.31;22.67;98582.06;4914899;29;20021;-68
2023/07/18 10:43:57;;;;;;;12.00;4.50;;;;;;;41.31;22.95;98571.94;4899169;29;20039;-68
2023/07/18 10:46:22;;;;;;;9.97;4.43;;;;;;;41.28;22.73;98571.75;4899155;29;20036;-69
2023/07/18 10:48:51;;;;;;;7.97;4.18;;;;;;;41.23;23.29;98580.94;4915078;29;20051;-68
2023/07/18 10:51:16;;;;;;;10.38;4.60;;;;;;;41.29;22.99;98582.41;4899168;29;20042;-68
2023/07/18 10:53:43;;;;;;;8.15;4.45;;;;;;;41.30;23.00;98569.53;4914520;29;20040;-69
2023/07/18 10:56:18;;;;;;;;;;;;;;;41.21;23.30;98566.75;4899022;29;20195;-67
2023/07/18 10:58:44;;;;;;;10.80;4.57;;;;;;;41.02;23.34;98567.94;4915112;29;19978;-69
2023/07/18 11:01:10;;;;;;;7.55;4.80;;;;;;;41.05;23.53;98561.00;4898958;29;20403;-68
2023/07/18 11:03:37;;;;;;;5.55;4.45;;;;;;;41.11;23.48;98562.44;4883574;29;20040;-68
2023/07/18 11:06:07;;;;;;;12.35;4.80;;;;;;;40.99;23.83;98571.31;4899217;29;20039;-68
2023/07/18 11:08:33;;;;;;;11.20;4.80;;;;;;;40.84;23.76;98580.78;4899573;29;20039;-70
2023/07/18 11:11:03;;;;;;;7.82;5.05;;;;;;;40.65;24.18;98570.13;4883197;29;20052;-68
2023/07/18 11:13:36;;;;;;;10.07;5.40;;;;;;;40.41;24.53;98581.53;4898923;29;20032;-68
2023/07/18 11:16:04;;;;;;;18.60;5.55;;;;;;;40.21;24.78;98612.19;4882452;29;20046;-68
2023/07/18 11:18:50;;;;;;;8.23;5.40;;;;;;;39.91;25.45;98615.38;4915931;29;20043;-68
2023/07/18 11:21:19;;;;;;;21.77;6.00;;;;;;;39.69;25.80;98602.59;4899624;29;20111;-69
2023/07/18 11:23:46;;;;;;;13.63;5.90;;;;;;;39.45;26.80;98600.19;4914405;29;20507;-69
2023/07/18 11:26:15;;;;;;;10.05;5.43;;;;;;;39.29;27.18;98599.75;4913881;29;20024;-69
2023/07/18 11:28:41;;;;;;;9.13;5.22;;;;;;;39.15;28.07;98586.16;4902378;29;20502;-69